createdAt,value
2018-07-20T00:01:02.989Z,8.33
2018-07-20T00:03:31.483Z,7.77
2018-07-20T00:05:59.881Z,7.00
2018-07-20T00:08:28.304Z,7.80
2018-07-20T00:10:56.740Z,8.57
2018-07-20T00:13:25.153Z,7.97
2018-07-20T00:15:53.887Z,7.67
2018-07-20T00:18:22.334Z,8.37
2018-07-20T00:20:50.789Z,8.63
2018-07-20T00:23:19.205Z,8.10
2018-07-20T00:25:47.632Z,8.80
2018-07-20T00:28:16.053Z,8.43
2018-07-20T00:30:44.488Z,8.80
2018-07-20T00:33:12.932Z,9.10
2018-07-20T00:35:41.336Z,7.67
2018-07-20T00:38:09.766Z,8.60
2018-07-20T00:40:38.181Z,8.37
2018-07-20T00:43:06.618Z,9.33
2018-07-20T00:45:35.021Z,9.20
2018-07-20T00:48:03.458Z,8.57
2018-07-20T00:50:31.886Z,9.63
2018-07-20T00:53:00.346Z,9.30
2018-07-20T00:55:28.759Z,8.10
2018-07-20T00:57:57.172Z,8.93
2018-07-20T01:00:25.584Z,9.40
2018-07-20T01:02:54.031Z,9.60
2018-07-20T01:05:22.505Z,10.33
2018-07-20T01:07:50.987Z,10.23
2018-07-20T01:10:19.812Z,9.70
2018-07-20T01:12:48.241Z,10.33
2018-07-20T01:15:16.662Z,8.90
2018-07-20T01:17:45.168Z,10.50
2018-07-20T01:20:13.577Z,9.47
2018-07-20T01:22:42.024Z,10.50
2018-07-20T01:25:10.449Z,10.23
2018-07-20T01:27:38.894Z,10.63
2018-07-20T01:30:07.394Z,10.53
2018-07-20T01:32:35.864Z,9.13
2018-07-20T01:35:04.317Z,10.23
2018-07-20T01:37:32.729Z,9.53
2018-07-20T01:40:01.153Z,9.63
2018-07-20T01:42:29.590Z,9.83
2018-07-20T01:44:58.001Z,10.70
2018-07-20T01:47:26.462Z,10.00
2018-07-20T01:49:54.964Z,11.10
2018-07-20T01:52:23.380Z,9.53
2018-07-20T01:54:51.808Z,10.40
2018-07-20T01:57:20.208Z,10.90
2018-07-20T01:59:48.670Z,9.67
2018-07-20T02:02:17.086Z,9.67
2018-07-20T02:04:45.554Z,10.37
2018-07-20T02:07:14.001Z,10.50
2018-07-20T02:09:42.458Z,8.90
2018-07-20T02:12:10.873Z,9.50
2018-07-20T02:14:39.308Z,9.10
2018-07-20T02:17:07.723Z,10.17
2018-07-20T02:19:36.271Z,9.90
2018-07-20T02:22:04.707Z,9.53
2018-07-20T02:24:33.104Z,10.17
2018-07-20T02:27:01.547Z,10.37
2018-07-20T02:29:29.997Z,10.53
2018-07-20T02:31:58.440Z,10.27
2018-07-20T02:34:26.868Z,9.90
2018-07-20T02:36:55.302Z,11.23
2018-07-20T02:39:23.750Z,8.90
2018-07-20T02:41:52.192Z,10.10
2018-07-20T02:44:20.646Z,10.53
2018-07-20T02:46:49.074Z,10.27
2018-07-20T02:49:17.521Z,9.60
2018-07-20T02:51:45.949Z,9.70
2018-07-20T02:54:14.394Z,9.50
2018-07-20T02:56:42.825Z,10.17
2018-07-20T02:59:11.260Z,9.63
2018-07-20T03:01:39.674Z,9.47
2018-07-20T03:04:08.069Z,8.57
2018-07-20T03:06:36.492Z,9.37
2018-07-20T03:09:08.394Z,8.97
2018-07-20T03:11:36.822Z,8.93
2018-07-20T03:14:05.370Z,8.83
2018-07-20T03:16:33.797Z,9.20
2018-07-20T03:19:02.250Z,9.90
2018-07-20T03:21:30.703Z,9.47
2018-07-20T03:23:59.171Z,10.03
2018-07-20T03:26:27.594Z,9.40
2018-07-20T03:28:56.086Z,10.13
2018-07-20T03:31:24.512Z,10.50
2018-07-20T03:33:52.970Z,9.47
2018-07-20T03:36:21.386Z,9.53
2018-07-20T03:38:49.838Z,11.80
2018-07-20T03:41:18.236Z,10.33
2018-07-20T03:43:46.699Z,9.50
2018-07-20T03:46:15.129Z,10.17
2018-07-20T03:48:43.564Z,9.73
2018-07-20T03:51:12.022Z,9.97
2018-07-20T03:53:40.500Z,9.93
2018-07-20T03:56:08.950Z,9.80
2018-07-20T03:58:37.375Z,9.10
2018-07-20T04:01:05.844Z,11.23
2018-07-20T04:03:34.277Z,9.47
2018-07-20T04:06:02.722Z,11.03
2018-07-20T04:08:31.174Z,11.00
2018-07-20T04:10:59.640Z,10.67
2018-07-20T04:13:28.073Z,10.80
2018-07-20T04:15:56.517Z,10.67
2018-07-20T04:18:24.969Z,10.53
2018-07-20T04:20:53.420Z,11.17
2018-07-20T04:23:22.031Z,10.90
2018-07-20T04:25:50.507Z,12.90
2018-07-20T04:28:18.981Z,11.33
2018-07-20T04:30:47.461Z,11.73
2018-07-20T04:33:15.942Z,11.90
2018-07-20T04:35:44.425Z,11.10
2018-07-20T04:38:12.943Z,10.20
2018-07-20T04:40:41.456Z,11.50
2018-07-20T04:43:09.925Z,10.07
2018-07-20T04:45:38.420Z,11.60
2018-07-20T04:48:06.890Z,10.00
2018-07-20T04:50:35.423Z,10.53
2018-07-20T04:53:03.929Z,9.17
2018-07-20T04:55:32.404Z,9.40
2018-07-20T04:58:00.869Z,8.90
2018-07-20T05:00:29.399Z,8.73
2018-07-20T05:02:57.874Z,9.13
2018-07-20T05:05:26.362Z,9.07
2018-07-20T05:07:54.842Z,9.10
2018-07-20T05:10:23.378Z,9.87
2018-07-20T05:12:51.891Z,10.60
2018-07-20T05:15:20.340Z,9.77
2018-07-20T05:17:48.996Z,9.23
2018-07-20T05:20:17.744Z,8.60
2018-07-20T05:22:46.886Z,8.77
2018-07-20T05:25:15.380Z,10.13
2018-07-20T05:27:44.399Z,8.90
2018-07-20T05:30:12.937Z,8.23
2018-07-20T05:32:41.433Z,7.40
2018-07-20T05:35:09.917Z,8.50
2018-07-20T05:37:38.396Z,7.77
2018-07-20T05:40:06.862Z,8.47
2018-07-20T05:42:35.356Z,8.40
2018-07-20T05:45:04.001Z,9.00
2018-07-20T05:47:32.493Z,8.37
2018-07-20T05:50:01.049Z,8.43
2018-07-20T05:52:29.642Z,8.90
2018-07-20T05:54:58.191Z,8.57
2018-07-20T05:57:26.751Z,8.17
2018-07-20T05:59:55.256Z,8.50
2018-07-20T06:02:23.814Z,8.97
2018-07-20T06:04:52.313Z,8.50
2018-07-20T06:07:20.900Z,8.33
2018-07-20T06:09:49.495Z,7.73
2018-07-20T06:12:18.056Z,8.00
2018-07-20T06:14:46.618Z,7.83
2018-07-20T06:17:15.185Z,7.70
2018-07-20T06:19:43.740Z,7.33
2018-07-20T06:22:12.388Z,7.13
2018-07-20T06:24:40.993Z,7.30
2018-07-20T06:27:09.520Z,7.47
2018-07-20T06:29:38.236Z,7.20
2018-07-20T06:32:07.014Z,6.93
2018-07-20T06:34:35.513Z,7.20
2018-07-20T06:37:04.045Z,6.50
2018-07-20T06:39:32.643Z,6.93
2018-07-20T06:42:01.179Z,7.20
2018-07-20T06:44:29.690Z,7.00
2018-07-20T06:46:58.234Z,6.57
2018-07-20T06:49:26.869Z,6.63
2018-07-20T06:51:55.437Z,7.10
2018-07-20T06:54:23.970Z,6.40
2018-07-20T06:56:52.484Z,7.00
2018-07-20T06:59:21.427Z,6.63
2018-07-20T07:01:50.028Z,6.43
2018-07-20T07:04:18.497Z,7.60
2018-07-20T07:06:46.963Z,6.60
2018-07-20T07:09:15.511Z,5.67
2018-07-20T07:11:43.989Z,6.27
2018-07-20T07:14:12.412Z,5.67
2018-07-20T07:16:40.874Z,6.10
2018-07-20T07:19:09.334Z,6.00
2018-07-20T07:21:37.854Z,5.80
2018-07-20T07:24:06.566Z,5.83
2018-07-20T07:26:35.037Z,6.57
2018-07-20T07:29:03.542Z,5.80
2018-07-20T07:31:31.935Z,5.13
2018-07-20T07:34:00.381Z,5.97
2018-07-20T07:36:28.869Z,6.20
2018-07-20T07:38:57.313Z,5.60
2018-07-20T07:41:25.831Z,4.93
2018-07-20T07:43:54.397Z,5.20
2018-07-20T07:46:22.888Z,5.00
2018-07-20T07:48:51.389Z,5.60
2018-07-20T07:51:19.894Z,5.13
2018-07-20T07:53:48.488Z,4.80
2018-07-20T07:56:16.924Z,4.40
2018-07-20T07:58:45.373Z,5.27
2018-07-20T08:01:13.927Z,4.70
2018-07-20T08:03:42.466Z,4.73
2018-07-20T08:06:10.941Z,4.40
2018-07-20T08:08:39.425Z,4.23
2018-07-20T08:11:07.994Z,4.20
2018-07-20T08:13:36.467Z,4.13
2018-07-20T08:16:04.997Z,4.90
2018-07-20T08:18:33.484Z,4.13
2018-07-20T08:21:02.045Z,4.50
2018-07-20T08:23:30.545Z,3.83
2018-07-20T08:25:59.130Z,5.00
2018-07-20T08:28:27.876Z,4.63
2018-07-20T08:30:56.484Z,4.87
2018-07-20T08:33:25.061Z,4.50
2018-07-20T08:35:53.626Z,5.57
2018-07-20T08:38:22.223Z,4.93
2018-07-20T08:40:50.801Z,5.20
2018-07-20T08:43:19.440Z,4.53
2018-07-20T08:45:48.101Z,4.25
2018-07-20T08:48:16.638Z,4.23
2018-07-20T08:50:45.267Z,4.30
2018-07-20T08:53:13.958Z,4.92
2018-07-20T08:55:42.467Z,4.35
2018-07-20T08:58:15.523Z,4.78
2018-07-20T09:00:44.253Z,4.97
2018-07-20T09:03:12.932Z,4.65
2018-07-20T09:05:41.826Z,4.37
2018-07-20T09:08:10.336Z,4.97
2018-07-20T09:10:44.145Z,4.28
2018-07-20T09:13:12.708Z,3.98
2018-07-20T09:15:41.296Z,4.35
2018-07-20T09:18:10.193Z,5.12
2018-07-20T09:20:39.053Z,3.90
2018-07-20T09:23:07.911Z,3.90
2018-07-20T09:25:36.486Z,3.87
2018-07-20T09:28:08.881Z,3.75
2018-07-20T09:30:37.574Z,3.85
2018-07-20T09:33:06.405Z,4.37
2018-07-20T09:35:35.247Z,4.30
2018-07-20T09:38:03.850Z,4.05
2018-07-20T09:40:33.249Z,3.83
2018-07-20T09:43:01.877Z,3.95
2018-07-20T09:45:30.659Z,3.75
2018-07-20T09:47:59.986Z,4.25
2018-07-20T09:50:29.858Z,4.03
2018-07-20T09:52:58.485Z,3.83
2018-07-20T09:55:27.366Z,3.80
2018-07-20T09:57:56.033Z,4.20
2018-07-20T10:00:30.008Z,3.87
2018-07-20T10:02:58.653Z,4.50
2018-07-20T10:05:27.441Z,4.25
2018-07-20T10:07:56.131Z,4.15
2018-07-20T10:10:28.614Z,3.58
2018-07-20T10:12:57.812Z,3.62
2018-07-20T10:15:26.762Z,4.00
2018-07-20T10:17:55.809Z,3.60
2018-07-20T10:20:25.500Z,3.90
2018-07-20T10:22:54.185Z,4.03
2018-07-20T10:25:24.269Z,3.58
2018-07-20T10:27:53.621Z,4.35
2018-07-20T10:30:22.613Z,3.70
2018-07-20T10:32:51.553Z,3.37
2018-07-20T10:35:27.997Z,3.72
2018-07-20T10:38:17.838Z,3.50
2018-07-20T10:43:44.171Z,3.55
2018-07-20T10:46:13.402Z,4.10
2018-07-20T10:48:44.184Z,3.77
2018-07-20T10:51:12.944Z,3.70
2018-07-20T10:53:42.260Z,4.20
2018-07-20T10:56:17.112Z,3.58
2018-07-20T10:58:50.199Z,3.90
2018-07-20T11:01:18.863Z,4.00
2018-07-20T11:03:47.708Z,3.62
2018-07-20T11:06:16.188Z,3.55
2018-07-20T11:08:44.769Z,3.20
2018-07-20T11:11:16.570Z,3.72
2018-07-20T11:13:45.443Z,3.52
2018-07-20T11:16:14.340Z,3.42
2018-07-20T11:18:49.084Z,3.60
2018-07-20T11:21:18.696Z,4.37
2018-07-20T11:23:53.475Z,4.50
2018-07-20T11:26:24.055Z,3.40
2018-07-20T11:28:52.589Z,3.08
2018-07-20T11:31:25.512Z,3.50
2018-07-20T11:33:55.600Z,3.40
2018-07-20T11:36:24.491Z,3.10
2018-07-20T11:38:54.429Z,4.00
2018-07-20T11:41:23.047Z,3.60
2018-07-20T11:43:51.651Z,3.67
2018-07-20T11:46:20.164Z,4.15
2018-07-20T11:48:48.739Z,3.40
2018-07-20T11:51:17.303Z,4.10
2018-07-20T11:53:45.868Z,3.75
2018-07-20T11:56:14.355Z,3.65
2018-07-20T11:58:43.000Z,3.33
2018-07-20T12:01:11.673Z,3.77
2018-07-20T12:03:40.204Z,3.45
2018-07-20T12:06:08.812Z,3.20
2018-07-20T12:08:37.405Z,3.70
2018-07-20T12:11:06.282Z,3.83
2018-07-20T12:13:34.868Z,3.55
2018-07-20T12:16:03.338Z,4.03
2018-07-20T12:18:31.894Z,4.07
2018-07-20T12:21:03.479Z,4.22
2018-07-20T12:23:32.003Z,3.90
2018-07-20T12:26:00.759Z,3.72
2018-07-20T12:28:31.650Z,3.60
2018-07-20T12:31:00.169Z,4.00
2018-07-20T12:33:28.724Z,3.65
2018-07-20T12:36:06.141Z,3.72
2018-07-20T12:38:36.203Z,3.60
2018-07-20T12:41:05.821Z,4.25
2018-07-20T12:43:49.807Z,4.10
2018-07-20T12:46:18.672Z,3.80
2018-07-20T12:48:47.189Z,3.80
2018-07-20T12:51:15.674Z,4.00
2018-07-20T12:56:39.560Z,3.80
2018-07-20T12:59:08.624Z,3.67
2018-07-20T13:01:41.625Z,3.47
2018-07-20T13:04:13.976Z,3.42
2018-07-20T13:06:42.500Z,3.45
2018-07-20T13:09:12.604Z,4.50
2018-07-20T13:11:41.649Z,3.37
2018-07-20T13:14:11.117Z,3.52
2018-07-20T13:16:40.153Z,4.45
2018-07-20T13:19:08.844Z,3.95
2018-07-20T13:21:37.378Z,3.95
2018-07-20T13:24:06.193Z,3.90
2018-07-20T13:26:38.818Z,3.90
2018-07-20T13:29:07.355Z,3.70
2018-07-20T13:31:36.541Z,3.95
2018-07-20T13:34:05.111Z,3.52
2018-07-20T13:36:41.969Z,4.05
2018-07-20T13:39:11.635Z,4.00
2018-07-20T13:41:41.181Z,4.17
2018-07-20T13:44:09.753Z,4.12
2018-07-20T13:46:38.368Z,3.85
2018-07-20T13:49:10.147Z,4.53
2018-07-20T13:51:42.246Z,3.60
2018-07-20T13:54:11.087Z,3.90
2018-07-20T13:56:39.936Z,3.77
2018-07-20T13:59:08.759Z,4.08
2018-07-20T14:01:37.562Z,4.00
2018-07-20T14:04:10.121Z,4.20
2018-07-20T14:06:42.658Z,26.40
2018-07-20T14:11:53.196Z,4.90
2018-07-20T14:14:21.996Z,16.33
2018-07-20T14:16:50.853Z,4.03
2018-07-20T14:19:20.024Z,5.20
2018-07-20T14:21:48.648Z,6.43
2018-07-20T14:24:17.237Z,8.43
2018-07-20T14:26:45.874Z,4.93
2018-07-20T14:29:14.664Z,8.30
2018-07-20T14:31:43.520Z,8.33
2018-07-20T14:34:12.019Z,24.10
2018-07-20T14:36:40.652Z,13.50
2018-07-20T14:39:11.389Z,13.07
2018-07-20T14:41:39.996Z,9.83
2018-07-20T14:44:09.078Z,4.77
2018-07-20T14:46:37.765Z,4.00
2018-07-20T14:49:06.848Z,6.83
2018-07-20T14:51:35.789Z,4.13
2018-07-20T14:54:04.463Z,4.23
2018-07-20T14:56:33.227Z,4.13
2018-07-20T14:59:02.020Z,4.10
2018-07-20T15:01:30.760Z,4.60
2018-07-20T15:03:59.577Z,4.40
2018-07-20T15:06:28.212Z,4.33
2018-07-20T15:08:57.294Z,4.80
2018-07-20T15:11:26.315Z,4.90
2018-07-20T15:13:54.900Z,5.80
2018-07-20T15:16:23.608Z,4.70
2018-07-20T15:18:52.395Z,4.40
2018-07-20T15:21:21.124Z,4.90
2018-07-20T15:23:49.870Z,4.20
2018-07-20T15:26:18.716Z,4.47
2018-07-20T15:28:47.238Z,4.37
2018-07-20T15:31:15.795Z,4.80
2018-07-20T15:33:44.280Z,4.90
2018-07-20T15:36:12.872Z,4.67
2018-07-20T15:38:41.366Z,6.23
2018-07-20T15:41:10.089Z,5.67
2018-07-20T15:43:39.675Z,4.77
2018-07-20T15:46:08.212Z,4.80
2018-07-20T15:48:37.023Z,5.07
2018-07-20T15:51:05.698Z,5.07
2018-07-20T15:53:36.253Z,4.83
2018-07-20T15:56:03.179Z,4.83
2018-07-20T15:58:31.592Z,4.77
2018-07-20T16:01:00.158Z,4.70
2018-07-20T16:03:28.656Z,4.73
2018-07-20T16:05:57.234Z,4.40
2018-07-20T16:08:25.950Z,5.60
2018-07-20T16:10:54.512Z,4.77
2018-07-20T16:13:23.433Z,5.27
2018-07-20T16:15:52.221Z,4.30
2018-07-20T16:18:21.921Z,4.40
2018-07-20T16:20:50.504Z,4.93
2018-07-20T16:23:19.174Z,4.40
2018-07-20T16:25:47.835Z,4.63
2018-07-20T16:28:16.446Z,6.07
2018-07-20T16:30:44.873Z,5.20
2018-07-20T16:33:13.413Z,5.80
2018-07-20T16:35:42.114Z,4.60
2018-07-20T16:38:10.570Z,4.50
2018-07-20T16:40:39.008Z,4.13
2018-07-20T16:43:07.478Z,4.60
2018-07-20T16:45:35.919Z,4.50
2018-07-20T16:48:04.916Z,4.80
2018-07-20T16:50:33.395Z,4.57
2018-07-20T16:53:01.836Z,5.30
2018-07-20T16:55:30.314Z,5.50
2018-07-20T16:57:58.813Z,4.77
2018-07-20T17:00:27.305Z,5.10
2018-07-20T17:02:55.739Z,4.73
2018-07-20T17:05:24.225Z,4.33
2018-07-20T17:07:52.659Z,4.80
2018-07-20T17:10:21.164Z,4.70
2018-07-20T17:12:49.701Z,4.57
2018-07-20T17:15:18.201Z,5.07
2018-07-20T17:17:46.711Z,4.50
2018-07-20T17:20:15.354Z,4.53
2018-07-20T17:22:43.883Z,5.00
2018-07-20T17:25:12.534Z,4.80
2018-07-20T17:27:46.468Z,5.07
2018-07-20T17:30:15.051Z,4.60
2018-07-20T17:32:47.930Z,5.23
2018-07-20T17:35:16.147Z,4.50
2018-07-20T17:37:44.893Z,4.47
2018-07-20T17:40:13.521Z,4.83
2018-07-20T17:42:42.021Z,4.33
2018-07-20T17:45:10.723Z,5.67
2018-07-20T17:47:39.306Z,4.87
2018-07-20T17:50:08.010Z,4.60
2018-07-20T17:52:36.639Z,4.53
2018-07-20T17:55:05.358Z,4.50
2018-07-20T17:57:34.561Z,4.80
2018-07-20T18:00:03.092Z,4.80
2018-07-20T18:02:31.562Z,4.87
2018-07-20T18:05:00.202Z,4.30
2018-07-20T18:07:28.637Z,4.60
2018-07-20T18:09:57.107Z,4.60
2018-07-20T18:12:25.582Z,5.00
2018-07-20T18:14:54.144Z,5.30
2018-07-20T18:17:22.618Z,5.10
2018-07-20T18:19:51.042Z,5.00
2018-07-20T18:22:19.587Z,5.30
2018-07-20T18:24:48.026Z,4.87
2018-07-20T18:27:16.590Z,5.50
2018-07-20T18:29:44.969Z,4.70
2018-07-20T18:32:13.393Z,5.50
2018-07-20T18:34:41.898Z,5.40
2018-07-20T18:37:10.348Z,5.23
2018-07-20T18:39:38.800Z,4.80
2018-07-20T18:42:07.302Z,4.80
2018-07-20T18:44:35.702Z,4.73
2018-07-20T18:47:04.179Z,4.83
2018-07-20T18:49:32.642Z,4.37
2018-07-20T18:52:01.045Z,5.00
2018-07-20T18:54:29.995Z,4.63
2018-07-20T18:56:58.460Z,4.80
2018-07-20T18:59:26.880Z,4.50
2018-07-20T19:01:55.325Z,4.47
2018-07-20T19:04:23.881Z,4.37
2018-07-20T19:06:52.495Z,4.67
2018-07-20T19:09:20.914Z,4.50
2018-07-20T19:11:49.427Z,4.50
2018-07-20T19:14:18.394Z,4.40
2018-07-20T19:16:46.829Z,4.50
2018-07-20T19:19:15.656Z,4.60
2018-07-20T19:21:44.571Z,4.70
2018-07-20T19:24:12.683Z,4.90
2018-07-20T19:26:41.233Z,4.77
2018-07-20T19:29:09.876Z,4.40
2018-07-20T19:31:38.326Z,4.77
2018-07-20T19:34:07.126Z,4.83
2018-07-20T19:36:35.544Z,4.27
2018-07-20T19:39:05.960Z,4.40
2018-07-20T19:41:34.390Z,5.40
2018-07-20T19:44:02.959Z,4.97
2018-07-20T19:46:31.520Z,5.20
2018-07-20T19:49:00.014Z,4.70
2018-07-20T19:51:28.597Z,6.00
2018-07-20T19:53:57.231Z,5.37
2018-07-20T19:56:25.711Z,5.77
2018-07-20T19:58:54.201Z,5.37
2018-07-20T20:01:22.659Z,5.63
2018-07-20T20:03:51.073Z,6.27
2018-07-20T20:06:19.536Z,5.83
2018-07-20T20:08:48.106Z,6.80
2018-07-20T20:11:16.521Z,6.53
2018-07-20T20:13:45.025Z,7.77
2018-07-20T20:16:13.651Z,7.90
2018-07-20T20:18:42.144Z,6.23
2018-07-20T20:21:10.686Z,6.10
2018-07-20T20:23:39.148Z,6.87
2018-07-20T20:26:07.622Z,7.93
2018-07-20T20:28:36.254Z,6.93
2018-07-20T20:31:04.735Z,6.73
2018-07-20T20:33:33.291Z,5.87
2018-07-20T20:36:01.867Z,6.13
2018-07-20T20:38:30.330Z,6.07
2018-07-20T20:40:58.815Z,5.63
2018-07-20T20:43:27.883Z,5.90
2018-07-20T20:45:56.364Z,6.70
2018-07-20T20:48:24.905Z,6.13
2018-07-20T20:50:53.811Z,5.67
2018-07-20T20:53:22.261Z,6.20
2018-07-20T20:55:50.733Z,6.50
2018-07-20T20:58:19.214Z,6.20
2018-07-20T21:00:47.944Z,5.70
2018-07-20T21:03:16.488Z,5.93
2018-07-20T21:05:44.974Z,6.20
2018-07-20T21:08:13.153Z,6.63
2018-07-20T21:10:41.577Z,6.70
2018-07-20T21:13:10.352Z,6.80
2018-07-20T21:15:38.911Z,6.83
2018-07-20T21:18:07.478Z,6.47
2018-07-20T21:20:36.081Z,5.90
2018-07-20T21:23:04.562Z,5.40
2018-07-20T21:25:33.110Z,4.30
2018-07-20T21:28:01.861Z,4.00
2018-07-20T21:30:31.007Z,3.40
2018-07-20T21:32:59.537Z,3.70
2018-07-20T21:35:28.632Z,4.10
2018-07-20T21:37:56.796Z,3.90
2018-07-20T21:40:25.354Z,5.33
2018-07-20T21:42:53.819Z,7.07
2018-07-20T21:45:21.992Z,4.20
2018-07-20T21:47:50.420Z,4.50
2018-07-20T21:50:18.898Z,4.17
2018-07-20T21:52:47.378Z,4.50
2018-07-20T21:55:15.788Z,3.83
2018-07-20T21:57:44.231Z,4.83
2018-07-20T22:00:16.464Z,4.77
2018-07-20T22:02:44.621Z,5.10
2018-07-20T22:05:13.131Z,4.90
2018-07-20T22:07:41.573Z,4.80
2018-07-20T22:10:10.170Z,5.57
2018-07-20T22:12:38.634Z,5.57
2018-07-20T22:15:07.873Z,6.20
2018-07-20T22:17:36.309Z,7.00
2018-07-20T22:20:05.880Z,6.40
2018-07-20T22:22:34.752Z,6.87
2018-07-20T22:25:03.237Z,7.70
2018-07-20T22:27:31.694Z,6.47
2018-07-20T22:30:00.199Z,7.13
2018-07-20T22:32:28.623Z,7.50
2018-07-20T22:34:57.229Z,8.27
2018-07-20T22:37:25.689Z,6.90
2018-07-20T22:39:54.134Z,7.50
2018-07-20T22:42:22.582Z,8.20
2018-07-20T22:44:51.317Z,7.97
2018-07-20T22:47:19.824Z,8.17
2018-07-20T22:49:48.316Z,9.60
2018-07-20T22:52:16.757Z,7.10
2018-07-20T22:54:45.201Z,7.37
2018-07-20T22:57:13.603Z,8.43
2018-07-20T22:59:42.039Z,7.77
2018-07-20T23:02:10.447Z,9.93
2018-07-20T23:04:38.901Z,8.87
2018-07-20T23:07:07.346Z,8.63
2018-07-20T23:09:35.838Z,8.63
2018-07-20T23:12:04.279Z,10.40
2018-07-20T23:14:32.732Z,9.13
2018-07-20T23:17:01.188Z,9.00
2018-07-20T23:19:29.641Z,8.23
2018-07-20T23:21:58.086Z,9.00
2018-07-20T23:24:27.221Z,9.23
2018-07-20T23:26:55.899Z,9.83
2018-07-20T23:29:24.350Z,10.47
2018-07-20T23:31:52.484Z,8.73
2018-07-20T23:34:20.927Z,7.87
2018-07-20T23:36:49.383Z,9.50
2018-07-20T23:39:17.505Z,10.00
2018-07-20T23:41:46.033Z,8.37
2018-07-20T23:44:14.458Z,7.83
2018-07-20T23:46:42.897Z,8.37
2018-07-20T23:49:11.342Z,8.40
2018-07-20T23:51:39.758Z,9.17
2018-07-20T23:54:08.177Z,7.87
2018-07-20T23:56:36.664Z,9.37
2018-07-20T23:59:05.106Z,10.60
